Time;durP1;ratioP1;P1;durP2;ratioP2;P2;SDS_P1;SDS_P2;PMS_P1;PMS_P2;Temp;Humidity;BMP_temperature;BMP_pressure;BME280_temperature;BME280_humidity;BME280_pressure;Samples;Min_cycle;Max_cycle;Signal;HPM_P1;HPM_P2
2022/09/21 00:01:58;;;;;;;11.57;6.55;;;;;;;10.72;100.00;102512.38;5052261;28;20033;-62
2022/09/21 00:04:23;;;;;;;13.27;6.45;;;;;;;10.69;100.00;102511.44;5052324;28;20040;-60
2022/09/21 00:06:49;;;;;;;8.25;5.75;;;;;;;10.62;100.00;102513.09;5052167;28;20032;-61
2022/09/21 00:09:14;;;;;;;7.97;6.10;;;;;;;10.58;100.00;102510.41;5051998;28;20024;-60
2022/09/21 00:11:39;;;;;;;12.70;6.45;;;;;;;10.45;100.00;102506.75;5051974;28;20032;-61
2022/09/21 00:14:09;;;;;;;11.07;6.75;;;;;;;10.40;100.00;102516.28;5052148;28;20044;-62
2022/09/21 00:16:35;;;;;;;7.20;6.18;;;;;;;10.33;100.00;102507.47;5052200;28;20094;-61
2022/09/21 00:19:01;;;;;;;10.48;6.28;;;;;;;10.26;100.00;102520.44;5051362;28;20036;-61
2022/09/21 00:21:27;;;;;;;10.00;5.65;;;;;;;10.23;100.00;102513.41;5051989;28;20047;-63
2022/09/21 00:23:53;;;;;;;9.57;6.05;;;;;;;10.14;100.00;102518.50;5051907;28;20029;-61
2022/09/21 00:26:21;;;;;;;12.50;7.63;;;;;;;10.13;100.00;102524.56;5051731;28;20470;-61
2022/09/21 00:28:52;;;;;;;7.30;5.88;;;;;;;10.10;100.00;102514.94;5051853;28;20029;-61
2022/09/21 00:31:18;;;;;;;9.55;6.15;;;;;;;10.09;100.00;102514.91;5051548;28;20098;-61
2022/09/21 00:33:43;;;;;;;9.57;6.22;;;;;;;10.11;100.00;102518.44;5051971;28;20029;-62
2022/09/21 00:36:11;;;;;;;9.30;6.10;;;;;;;10.15;100.00;102521.97;5051321;28;20033;-61
2022/09/21 00:38:37;;;;;;;10.93;6.70;;;;;;;10.21;100.00;102536.09;5051559;28;20036;-62
2022/09/21 00:41:05;;;;;;;10.48;6.28;;;;;;;10.21;100.00;102528.22;5051702;28;20033;-61
2022/09/21 00:43:35;;;;;;;11.27;6.45;;;;;;;10.22;100.00;102521.22;5051262;28;20043;-61
2022/09/21 00:46:04;;;;;;;9.63;6.53;;;;;;;10.25;100.00;102529.13;5051636;28;20412;-62
2022/09/21 00:48:30;;;;;;;9.05;5.93;;;;;;;10.25;100.00;102521.28;5051553;28;20445;-61
2022/09/21 00:51:01;;;;;;;13.30;7.10;;;;;;;10.20;100.00;102521.25;5051586;28;20041;-62
2022/09/21 00:53:27;;;;;;;12.38;6.55;;;;;;;10.18;100.00;102514.19;5051570;28;20037;-61
2022/09/21 00:55:56;;;;;;;11.93;5.88;;;;;;;10.19;100.00;102523.84;5051518;28;20404;-62
2022/09/21 00:58:36;;;;;;;9.50;6.57;;;;;;;10.11;100.00;102514.09;5051588;28;20486;-62
2022/09/21 01:01:01;;;;;;;9.15;6.47;;;;;;;10.19;100.00;102524.72;5051474;28;20128;-61
2022/09/21 01:03:30;;;;;;;9.40;6.20;;;;;;;10.17;100.00;102525.50;5051466;28;20039;-60
2022/09/21 01:05:56;;;;;;;8.70;6.10;;;;;;;10.11;100.00;102518.44;5051486;28;20029;-63
2022/09/21 01:08:25;;;;;;;11.23;6.50;;;;;;;10.11;100.00;102521.94;5051388;28;20035;-62
2022/09/21 01:11:12;;;;;;;14.32;6.97;;;;;;;10.12;100.00;102528.91;5051272;28;20065;-61
2022/09/21 01:14:04;;;;;;;9.73;6.55;;;;;;;10.11;100.00;102521.94;5051003;28;20060;-61
2022/09/21 01:16:35;;;;;;;;;;;;;;;10.16;100.00;102526.38;5051837;28;20029;-61
2022/09/21 01:19:15;;;;;;;9.05;6.22;;;;;;;10.09;100.00;102522.75;5051249;28;19923;-62
2022/09/21 01:22:00;;;;;;;8.80;6.38;;;;;;;10.08;100.00;102526.22;5051275;28;20040;-62
2022/09/21 01:24:58;;;;;;;9.90;5.57;;;;;;;10.09;100.00;102526.25;5051227;28;20028;-63
2022/09/21 01:28:01;;;;;;;11.25;6.00;;;;;;;10.06;100.00;102523.59;4997710;28;20067;-60
2022/09/21 01:30:30;;;;;;;10.02;5.90;;;;;;;10.05;100.00;102523.56;5035823;28;20491;-62
2022/09/21 01:33:19;;;;;;;8.65;6.60;;;;;;;10.04;100.00;102525.28;5055101;28;20650;-60
2022/09/21 01:35:53;;;;;;;9.18;6.38;;;;;;;10.03;100.00;102523.56;5055225;28;20025;-62
2022/09/21 01:38:25;;;;;;;8.10;6.30;;;;;;;10.07;100.00;102524.47;5055113;28;20033;-60
2022/09/21 01:40:57;;;;;;;7.95;6.32;;;;;;;10.04;100.00;102525.28;5054800;28;20171;-62
2022/09/21 01:43:28;;;;;;;8.93;6.28;;;;;;;10.07;100.00;102525.34;5054888;28;20041;-61
2022/09/21 01:45:59;;;;;;;9.57;5.75;;;;;;;10.02;100.00;102520.94;5054720;28;20053;-61
2022/09/21 01:48:24;;;;;;;10.95;6.45;;;;;;;10.02;100.00;102516.56;5054938;28;20041;-62
2022/09/21 01:50:56;;;;;;;11.00;6.25;;;;;;;10.00;100.00;102518.28;5054850;28;20047;-60
2022/09/21 01:53:30;;;;;;;10.43;6.30;;;;;;;10.02;100.00;102513.97;5054915;28;20435;-61
2022/09/21 01:56:01;;;;;;;10.00;5.80;;;;;;;10.02;100.00;102520.94;5054248;28;20517;-61
2022/09/21 01:58:35;;;;;;;9.27;6.25;;;;;;;10.08;100.00;102519.25;5054181;28;20769;-61
2022/09/21 02:01:04;;;;;;;8.43;6.00;;;;;;;10.04;100.00;102524.44;5054758;28;20108;-60
2022/09/21 02:03:37;;;;;;;8.20;5.82;;;;;;;9.96;100.00;102511.22;5054411;28;20037;-60
2022/09/21 02:06:04;;;;;;;7.78;5.60;;;;;;;9.98;100.00;102520.00;5054475;28;20037;-62
2022/09/21 02:08:31;;;;;;;8.43;6.07;;;;;;;9.93;100.00;102515.53;5054591;28;20136;-60
2022/09/21 02:10:59;;;;;;;11.98;6.50;;;;;;;9.86;100.00;102514.56;5054401;28;20037;-63
2022/09/21 02:13:28;;;;;;;7.75;6.00;;;;;;;9.88;100.00;102518.06;5054609;28;20044;-61
2022/09/21 02:16:03;;;;;;;10.10;6.20;;;;;;;9.86;100.00;102519.81;5054295;28;20345;-61
2022/09/21 02:18:31;;;;;;;7.28;5.85;;;;;;;9.77;100.00;102523.13;5054067;28;20032;-61
2022/09/21 02:20:59;;;;;;;7.38;5.65;;;;;;;9.70;100.00;102518.63;5054542;28;20041;-62
2022/09/21 02:23:36;;;;;;;10.32;5.93;;;;;;;9.68;100.00;102520.38;5054427;28;20036;-61
2022/09/21 02:26:16;;;;;;;8.23;5.97;;;;;;;9.63;100.00;102516.78;5054267;28;20044;-61
2022/09/21 02:29:00;;;;;;;8.07;5.97;;;;;;;9.56;100.00;102514.03;5054120;28;20657;-62
2022/09/21 02:31:36;;;;;;;8.25;5.82;;;;;;;9.50;100.00;102514.81;5053907;28;20033;-61
2022/09/21 02:34:15;;;;;;;7.78;6.30;;;;;;;9.49;100.00;102522.63;5052782;28;20372;-61
2022/09/21 02:36:50;;;;;;;7.05;5.55;;;;;;;9.37;100.00;102513.69;5054113;28;20040;-61
2022/09/21 02:39:20;;;;;;;7.85;5.97;;;;;;;9.36;100.00;102516.28;5054012;28;20029;-61
2022/09/21 02:42:16;;;;;;;8.65;5.85;;;;;;;9.31;100.00;102515.34;5052972;28;20816;-62
2022/09/21 02:45:00;;;;;;;7.95;5.57;;;;;;;9.31;100.00;102507.50;5054088;28;20033;-60
2022/09/21 02:47:35;;;;;;;10.25;5.75;;;;;;;9.28;100.00;102516.16;5053707;28;20055;-62
2022/09/21 02:50:06;;;;;;;6.53;5.18;;;;;;;9.20;100.00;102516.84;5053676;28;20037;-61
2022/09/21 02:52:34;;;;;;;12.00;5.65;;;;;;;9.13;100.00;102510.66;5053426;28;20036;-61
2022/09/21 02:55:01;;;;;;;8.32;5.70;;;;;;;9.17;100.00;102516.81;5053521;28;20036;-60
2022/09/21 02:57:27;;;;;;;7.40;5.63;;;;;;;9.14;100.00;102508.91;5053641;28;20037;-61
2022/09/21 02:59:52;;;;;;;7.00;5.70;;;;;;;9.11;100.00;102514.06;5053427;28;20041;-61
2022/09/21 03:02:18;;;;;;;8.05;5.78;;;;;;;9.10;100.00;102512.31;5053484;28;20094;-61
2022/09/21 03:04:46;;;;;;;7.65;5.50;;;;;;;9.08;100.00;102512.28;5053209;28;20431;-61
2022/09/21 03:07:15;;;;;;;6.05;4.93;;;;;;;9.02;100.00;102520.88;5053406;28;20082;-60
2022/09/21 03:09:41;;;;;;;9.30;5.50;;;;;;;8.91;100.00;102522.38;5053425;28;20106;-61
2022/09/21 03:12:06;;;;;;;9.35;5.38;;;;;;;8.68;100.00;102500.16;5053480;28;20036;-62
2022/09/21 03:14:32;;;;;;;10.82;6.10;;;;;;;8.71;100.00;102529.81;5053254;28;20124;-60
2022/09/21 03:16:57;;;;;;;10.27;5.35;;;;;;;8.67;100.00;102524.47;5053124;28;20033;-61
2022/09/21 03:19:24;;;;;;;8.02;5.30;;;;;;;8.71;100.00;102524.59;5052922;28;20032;-62
2022/09/21 03:21:50;;;;;;;5.95;5.32;;;;;;;8.72;100.00;102528.97;5052955;28;20065;-61
2022/09/21 03:24:44;;;;;;;10.07;5.85;;;;;;;8.75;100.00;102529.88;5053024;28;20507;-61
2022/09/21 03:27:02;;;;;;;7.38;5.18;;;;;;;8.75;100.00;102522.94;5052653;28;20068;-61
2022/09/21 03:29:27;;;;;;;12.20;5.90;;;;;;;8.79;100.00;102523.88;5052888;28;20128;-60
2022/09/21 03:31:54;;;;;;;7.53;5.32;;;;;;;8.75;100.00;102527.25;5052893;28;20104;-61
2022/09/21 03:34:20;;;;;;;10.00;5.40;;;;;;;8.65;100.00;102529.69;5052807;28;20033;-62
2022/09/21 03:36:46;;;;;;;8.05;5.40;;;;;;;8.59;100.00;102529.56;5052901;28;20033;-61
2022/09/21 03:39:11;;;;;;;7.30;5.25;;;;;;;8.55;100.00;102526.84;5052806;28;20056;-62
2022/09/21 03:41:37;;;;;;;8.10;5.50;;;;;;;8.55;100.00;102525.09;5052738;28;20064;-62
2022/09/21 03:44:02;;;;;;;8.23;5.57;;;;;;;8.53;100.00;102521.59;5052480;28;20043;-61
2022/09/21 03:46:28;;;;;;;8.93;5.55;;;;;;;8.64;100.00;102540.97;5052485;28;20063;-61
2022/09/21 03:48:53;;;;;;;6.85;5.03;;;;;;;8.49;100.00;102511.91;5052513;28;20040;-60
2022/09/21 03:51:18;;;;;;;10.20;5.47;;;;;;;8.63;100.00;102538.34;5052612;28;20420;-61
2022/09/21 03:53:44;;;;;;;7.15;5.25;;;;;;;8.58;100.00;102533.00;5052671;28;20041;-62
2022/09/21 03:56:09;;;;;;;7.90;5.45;;;;;;;8.57;100.00;102538.19;5052288;28;20119;-60
2022/09/21 03:58:34;;;;;;;10.48;5.60;;;;;;;8.63;100.00;102547.03;5051836;28;20028;-61
2022/09/21 04:01:02;;;;;;;6.57;5.30;;;;;;;8.65;100.00;102544.47;5051876;28;20052;-61
2022/09/21 04:03:28;;;;;;;6.70;5.13;;;;;;;8.64;100.00;102542.72;5052344;28;20060;-60
2022/09/21 04:05:54;;;;;;;7.40;5.82;;;;;;;8.67;100.00;102535.81;5052322;28;20028;-60
2022/09/21 04:08:19;;;;;;;7.25;5.40;;;;;;;8.71;100.00;102541.97;5052276;28;20047;-61
2022/09/21 04:10:44;;;;;;;7.68;5.32;;;;;;;8.50;100.00;102525.84;5052045;28;20119;-60
2022/09/21 04:13:12;;;;;;;10.85;5.43;;;;;;;8.67;100.00;102541.03;5051926;28;20457;-61
2022/09/21 04:15:37;;;;;;;9.15;5.30;;;;;;;8.63;100.00;102540.94;5052014;28;20037;-61
2022/09/21 04:18:02;;;;;;;10.30;5.70;;;;;;;8.68;100.00;102544.50;5052026;28;20082;-61
2022/09/21 04:20:28;;;;;;;8.93;5.68;;;;;;;8.69;100.00;102539.31;5051972;28;20075;-60
2022/09/21 04:22:53;;;;;;;8.25;5.22;;;;;;;8.65;100.00;102540.13;5051826;28;20061;-60
2022/09/21 04:25:19;;;;;;;8.48;5.30;;;;;;;8.67;100.00;102538.41;5051836;28;20033;-60
2022/09/21 04:27:44;;;;;;;10.05;5.78;;;;;;;8.71;100.00;102553.28;5051610;28;20067;-60
2022/09/21 04:30:12;;;;;;;8.75;5.65;;;;;;;8.69;100.00;102552.38;5051683;28;20055;-61
2022/09/21 04:32:37;;;;;;;9.10;5.65;;;;;;;8.65;100.00;102545.34;5051879;28;20064;-60
2022/09/21 04:35:03;;;;;;;9.88;5.78;;;;;;;8.65;100.00;102547.09;5051539;28;20425;-61
2022/09/21 04:37:29;;;;;;;10.30;5.60;;;;;;;8.65;100.00;102545.34;5051705;28;20086;-60
2022/09/21 04:39:54;;;;;;;9.32;5.57;;;;;;;8.67;100.00;102542.75;5051583;28;20033;-61
2022/09/21 04:42:20;;;;;;;10.85;5.32;;;;;;;8.69;100.00;102548.88;5051479;28;20407;-61
2022/09/21 04:44:45;;;;;;;10.88;5.53;;;;;;;8.56;100.00;102524.25;5051606;28;20028;-61
2022/09/21 04:47:10;;;;;;;9.23;5.82;;;;;;;8.70;100.00;102558.47;5051508;28;20666;-61
2022/09/21 04:49:37;;;;;;;9.63;5.20;;;;;;;8.64;100.00;102548.81;5051635;28;20757;-61
2022/09/21 04:52:02;;;;;;;10.68;6.05;;;;;;;8.67;100.00;102558.41;5051498;28;20535;-61
2022/09/21 04:54:27;;;;;;;8.93;5.55;;;;;;;8.66;100.00;102556.66;5050285;28;20132;-61
2022/09/21 04:56:53;;;;;;;8.10;5.18;;;;;;;8.65;100.00;102550.56;5051297;28;20029;-60
2022/09/21 04:59:18;;;;;;;12.18;6.07;;;;;;;8.58;100.00;102548.66;5050905;28;20428;-61
2022/09/21 05:01:43;;;;;;;8.63;5.78;;;;;;;8.63;100.00;102559.22;5051455;28;20029;-61
2022/09/21 05:04:09;;;;;;;10.48;6.35;;;;;;;8.58;100.00;102555.63;5054142;28;20490;-61
2022/09/21 05:06:34;;;;;;;9.30;5.85;;;;;;;8.55;100.00;102558.16;5058126;28;20115;-60
2022/09/21 05:11:44;;;;;;;10.85;6.63;;;;;;;8.53;100.00;102558.09;5057669;28;20110;-61
2022/09/21 05:14:10;;;;;;;10.10;5.75;;;;;;;8.48;100.00;102551.94;5057700;28;20037;-58
2022/09/21 05:16:37;;;;;;;8.10;6.10;;;;;;;8.49;100.00;102563.22;5057804;28;20403;-60
2022/09/21 05:19:03;;;;;;;8.93;6.50;;;;;;;8.43;100.00;102556.16;5057957;28;20037;-60
2022/09/21 05:21:30;;;;;;;9.10;6.28;;;;;;;8.42;100.00;102561.34;5057871;28;20095;-61
2022/09/21 05:23:56;;;;;;;9.02;6.10;;;;;;;8.45;100.00;102557.06;5057288;28;20464;-61
2022/09/21 05:26:21;;;;;;;8.77;6.65;;;;;;;8.44;100.00;102560.53;5057757;28;20032;-61
2022/09/21 05:28:47;;;;;;;12.85;6.72;;;;;;;8.41;100.00;102564.78;5058061;28;20099;-61
2022/09/21 05:31:38;;;;;;;9.57;6.53;;;;;;;8.35;100.00;102560.28;5057599;28;20508;-61
2022/09/21 05:34:19;;;;;;;11.00;7.18;;;;;;;8.44;100.00;102570.09;5057848;28;20033;-60
2022/09/21 05:36:56;;;;;;;9.73;6.47;;;;;;;8.38;100.00;102573.41;5057591;28;20032;-61
2022/09/21 05:39:22;;;;;;;11.25;7.35;;;;;;;8.37;100.00;102574.25;5057615;28;20110;-60
2022/09/21 05:41:47;;;;;;;11.13;7.57;;;;;;;8.40;100.00;102576.06;5057695;28;20029;-61
2022/09/21 05:44:13;;;;;;;9.57;7.28;;;;;;;8.30;100.00;102577.56;5057697;28;20722;-61
2022/09/21 05:46:50;;;;;;;14.75;8.57;;;;;;;8.34;100.00;102584.63;5057515;28;20057;-64
2022/09/21 05:49:29;;;;;;;12.18;7.65;;;;;;;8.38;100.00;102582.13;5057467;28;20086;-62
2022/09/21 05:52:07;;;;;;;12.73;7.78;;;;;;;8.40;100.00;102590.00;5057869;28;20511;-61
2022/09/21 05:55:01;;;;;;;14.52;7.65;;;;;;;8.44;100.00;102584.00;5057677;28;20053;-60
2022/09/21 05:57:38;;;;;;;12.10;8.02;;;;;;;8.43;100.00;102590.06;5057294;28;20055;-60
2022/09/21 06:00:22;;;;;;;13.85;8.18;;;;;;;8.44;100.00;102594.44;5057270;28;20045;-60
2022/09/21 06:03:08;;;;;;;14.07;8.05;;;;;;;8.49;100.00;102590.19;5057523;28;20068;-60
2022/09/21 06:05:34;;;;;;;13.68;8.23;;;;;;;8.60;100.00;102598.28;5057194;28;20037;-60
2022/09/21 06:08:00;;;;;;;9.38;7.72;;;;;;;8.63;100.00;102590.53;5056018;28;20032;-60
2022/09/21 06:10:32;;;;;;;13.00;8.13;;;;;;;8.75;100.00;102598.63;5057050;28;20123;-61
2022/09/21 06:12:57;;;;;;;13.50;8.23;;;;;;;8.88;100.00;102598.03;5057047;28;20052;-60
2022/09/21 06:15:23;;;;;;;12.85;7.75;;;;;;;8.97;100.00;102605.19;5064337;28;20029;-60
2022/09/21 06:17:48;;;;;;;11.10;8.15;;;;;;;9.04;100.00;102599.25;5073025;28;20032;-60
2022/09/21 06:20:13;;;;;;;14.57;8.30;;;;;;;9.10;100.00;102590.66;5074137;28;20071;-63
2022/09/21 06:22:39;;;;;;;12.07;7.70;;;;;;;9.32;100.00;102605.94;5073694;28;20085;-60
2022/09/21 06:25:05;;;;;;;11.70;8.38;;;;;;;9.41;100.00;102600.88;5073564;28;20036;-60
2022/09/21 06:27:30;;;;;;;14.60;9.30;;;;;;;9.57;100.00;102595.06;5072618;28;20041;-61
2022/09/21 06:29:55;;;;;;;13.52;9.25;;;;;;;9.71;100.00;102592.72;5074231;28;20045;-60
2022/09/21 06:32:20;;;;;;;15.00;10.15;;;;;;;9.72;100.00;102589.25;5074191;28;20028;-61
2022/09/21 06:34:46;;;;;;;16.05;9.90;;;;;;;9.72;100.00;102590.13;5073981;28;20043;-61
2022/09/21 06:37:11;;;;;;;18.25;10.90;;;;;;;9.71;100.00;102590.09;5073737;28;20033;-61
2022/09/21 06:39:36;;;;;;;19.13;10.93;;;;;;;9.69;100.00;102590.09;5073203;28;20108;-61
2022/09/21 06:42:02;;;;;;;14.48;10.07;;;;;;;9.70;100.00;102597.06;5073712;28;20036;-61
2022/09/21 06:44:28;;;;;;;13.85;9.95;;;;;;;9.69;100.00;102591.84;5073874;28;20363;-61
2022/09/21 06:46:54;;;;;;;15.68;10.13;;;;;;;9.71;100.00;102592.72;5073829;28;20062;-58
2022/09/21 06:49:19;;;;;;;18.27;9.60;;;;;;;9.69;100.00;102597.06;5067834;28;20194;-62
2022/09/21 06:51:46;;;;;;;16.90;10.63;;;;;;;9.73;100.00;102596.25;5053822;28;20033;-62
2022/09/21 06:54:12;;;;;;;15.82;9.73;;;;;;;9.74;100.00;102593.66;5053391;28;20436;-63
2022/09/21 06:56:37;;;;;;;19.42;10.60;;;;;;;9.86;100.00;102586.91;5053220;28;20040;-60
2022/09/21 06:59:02;;;;;;;13.30;10.52;;;;;;;10.00;100.00;102596.75;5053381;28;20115;-59
2022/09/21 07:01:28;;;;;;;17.10;10.32;;;;;;;10.00;100.00;102595.88;5054351;28;20064;-63
2022/09/21 07:03:53;;;;;;;15.57;10.30;;;;;;;9.97;100.00;102601.91;5073444;28;20032;-63
2022/09/21 07:06:19;;;;;;;20.73;9.88;;;;;;;9.99;100.00;102604.56;5073259;28;20032;-63
2022/09/21 07:08:46;;;;;;;13.80;10.05;;;;;;;10.05;100.00;102599.41;5073264;28;20047;-63
2022/09/21 07:11:12;;;;;;;17.40;10.15;;;;;;;10.21;100.00;102600.59;5070742;28;20451;-63
2022/09/21 07:13:38;;;;;;;14.38;9.43;;;;;;;10.21;100.00;102598.00;5070890;28;20467;-64
2022/09/21 07:16:08;;;;;;;14.10;9.30;;;;;;;10.32;100.00;102605.16;5073174;28;20047;-49
2022/09/21 07:18:34;;;;;;;16.25;9.95;;;;;;;10.44;100.00;102602.72;5072964;28;20473;-51
2022/09/21 07:21:03;;;;;;;16.92;9.15;;;;;;;10.55;100.00;102605.50;5072981;28;20047;-55
2022/09/21 07:23:28;;;;;;;13.57;8.40;;;;;;;10.68;100.00;102596.97;5072950;28;20447;-52
2022/09/21 07:25:53;;;;;;;19.02;9.30;;;;;;;10.80;100.00;102604.09;5072771;28;20064;-50
2022/09/21 07:28:19;;;;;;;14.55;8.38;;;;;;;10.87;100.00;102592.88;5072788;28;20032;-54
2022/09/21 07:30:44;;;;;;;12.50;8.90;;;;;;;10.94;100.00;102594.69;5073064;28;20137;-53
2022/09/21 07:33:10;;;;;;;12.48;8.68;;;;;;;10.99;100.00;102594.75;5072944;28;20047;-53
2022/09/21 07:35:35;;;;;;;12.65;8.23;;;;;;;10.98;100.00;102599.13;5072727;28;20033;-53
2022/09/21 07:38:03;;;;;;;13.38;8.32;;;;;;;11.09;100.00;102594.00;5072646;28;20038;-63
2022/09/21 07:40:29;;;;;;;14.95;8.73;;;;;;;11.14;100.00;102589.72;5072525;28;20641;-63
2022/09/21 07:42:59;;;;;;;15.52;8.38;;;;;;;11.10;100.00;102588.78;5072763;28;20112;-63
2022/09/21 07:45:28;;;;;;;14.85;8.63;;;;;;;11.08;100.00;102597.50;5072574;28;20059;-64
2022/09/21 07:47:53;;;;;;;11.43;7.60;;;;;;;11.12;100.00;102584.44;5072697;28;20082;-63
2022/09/21 07:50:22;;;;;;;10.73;7.00;;;;;;;11.25;100.00;102592.47;5072499;28;20047;-63
2022/09/21 07:52:47;;;;;;;13.13;6.00;;;;;;;11.31;100.00;102585.53;5072525;28;20032;-63
2022/09/21 07:55:14;;;;;;;9.75;5.70;;;;;;;11.38;100.00;102589.13;5072556;28;20043;-63
2022/09/21 08:00:24;;;;;;;7.70;4.60;;;;;;;11.45;98.74;102573.47;5072299;28;20106;-63
2022/09/21 08:02:51;;;;;;;10.05;5.25;;;;;;;11.62;97.46;102581.50;5072080;28;20040;-63
2022/09/21 08:05:16;;;;;;;9.20;4.80;;;;;;;11.71;96.84;102589.47;5072363;28;20036;-63
2022/09/21 08:07:42;;;;;;;12.30;4.50;;;;;;;11.93;95.70;102580.09;5072477;28;20024;-63
2022/09/21 08:10:07;;;;;;;9.02;5.18;;;;;;;12.02;94.28;102588.03;5072248;28;20032;-63
2022/09/21 08:12:33;;;;;;;9.50;4.90;;;;;;;12.10;93.92;102577.63;5072362;28;20048;-63
2022/09/21 08:14:58;;;;;;;9.50;4.78;;;;;;;12.74;91.55;102580.69;5072015;28;20041;-63
2022/09/21 08:17:24;;;;;;;9.57;4.13;;;;;;;13.19;86.56;102577.41;5071818;28;20516;-63
2022/09/21 08:19:49;;;;;;;7.75;4.22;;;;;;;13.07;86.59;102582.59;5071852;28;20045;-62
2022/09/21 08:22:14;;;;;;;9.45;3.67;;;;;;;12.99;86.42;102579.91;5072101;28;20039;-62
2022/09/21 08:24:43;;;;;;;6.32;3.60;;;;;;;13.08;85.70;102584.34;5071990;28;20517;-62
2022/09/21 08:27:09;;;;;;;5.97;3.30;;;;;;;14.07;81.31;102576.66;5071865;28;20040;-63
2022/09/21 08:29:35;;;;;;;7.95;3.13;;;;;;;15.22;74.82;102567.66;5071830;28;20115;-63
2022/09/21 08:32:01;;;;;;;7.25;3.13;;;;;;;15.81;71.07;102579.59;5071853;28;20123;-62
2022/09/21 08:34:26;;;;;;;7.18;3.55;;;;;;;15.92;69.17;102580.41;5071756;28;20073;-63
2022/09/21 08:36:52;;;;;;;9.85;3.38;;;;;;;15.91;69.67;102579.53;5071357;28;20074;-62
2022/09/21 08:39:17;;;;;;;10.88;3.47;;;;;;;15.83;70.92;102577.84;5059668;28;20033;-64
2022/09/21 08:42:06;;;;;;;7.50;3.17;;;;;;;15.50;72.32;102587.69;5051608;28;20349;-63
2022/09/21 08:44:43;;;;;;;7.07;2.75;;;;;;;15.14;75.35;102583.50;5051486;28;20745;-63
2022/09/21 08:47:18;;;;;;;9.40;2.97;;;;;;;14.95;72.58;102582.69;5051460;28;20419;-63
2022/09/21 08:50:04;;;;;;;5.03;2.15;;;;;;;14.84;73.92;102588.88;5051678;28;20052;-62
2022/09/21 08:52:31;;;;;;;9.80;2.50;;;;;;;14.85;73.75;102583.63;5051257;28;20059;-63
2022/09/21 08:55:00;;;;;;;4.60;2.10;;;;;;;14.83;74.07;102587.13;5061200;28;20123;-62
2022/09/21 08:57:29;;;;;;;8.80;2.35;;;;;;;14.78;73.33;102586.25;5071396;28;20036;-64
2022/09/21 08:59:55;;;;;;;7.97;2.50;;;;;;;14.83;73.91;102585.38;5071434;28;20101;-63
2022/09/21 09:02:49;;;;;;;7.10;2.10;;;;;;;14.97;74.16;102580.03;5071148;28;20440;-63
2022/09/21 09:05:42;;;;;;;8.13;2.08;;;;;;;15.16;71.73;102586.13;5071412;28;20090;-62
2022/09/21 09:08:35;;;;;;;8.23;2.20;;;;;;;15.33;72.18;102585.16;5071438;28;20079;-63
2022/09/21 09:11:22;;;;;;;6.97;2.00;;;;;;;15.38;70.78;102589.53;5071484;28;20039;-63
2022/09/21 09:14:12;;;;;;;6.40;1.95;;;;;;;15.44;70.47;102592.13;5071301;28;20455;-63
2022/09/21 09:16:57;;;;;;;5.20;1.73;;;;;;;15.51;66.73;102585.94;5071336;28;20036;-63
2022/09/21 09:19:32;;;;;;;3.92;1.10;;;;;;;15.64;65.27;102591.16;5071328;28;20120;-64
2022/09/21 09:22:03;;;;;;;3.88;1.35;;;;;;;15.64;67.38;102590.28;5071254;28;20028;-64
2022/09/21 09:24:42;;;;;;;4.15;1.75;;;;;;;15.70;69.64;102602.56;5071233;28;20040;-64
2022/09/21 09:27:20;;;;;;;4.13;1.27;;;;;;;15.99;68.41;102600.59;5071431;28;20055;-62
2022/09/21 09:29:58;;;;;;;6.57;1.67;;;;;;;16.06;68.05;102591.75;5071397;28;20103;-63
2022/09/21 09:32:32;;;;;;;7.40;1.60;;;;;;;16.18;70.37;102594.28;5071025;28;20032;-63
2022/09/21 09:35:29;;;;;;;3.75;1.30;;;;;;;16.36;69.06;102598.50;5071242;28;20036;-63
2022/09/21 09:38:02;;;;;;;5.15;1.40;;;;;;;16.58;65.53;102599.19;5066659;28;20246;-64
2022/09/21 09:40:51;;;;;;;5.22;1.25;;;;;;;16.74;65.49;102606.09;5071157;28;20124;-64
2022/09/21 09:43:26;;;;;;;4.43;1.40;;;;;;;16.95;63.32;102600.56;5071140;28;20046;-64
2022/09/21 09:46:07;;;;;;;3.33;1.17;;;;;;;17.04;63.67;102589.88;5070966;28;20526;-62
2022/09/21 09:48:59;;;;;;;5.17;1.20;;;;;;;17.20;64.44;102595.84;5071433;28;20709;-64
2022/09/21 09:51:25;;;;;;;;;;;;;;;17.29;68.33;102589.56;5074062;28;20464;-62
2022/09/21 09:53:56;;;;;;;4.80;1.10;;;;;;;17.42;62.69;102579.69;5074627;28;19981;-62
2022/09/21 09:56:22;;;;;;;4.60;1.58;;;;;;;17.53;59.00;102583.03;5074818;28;20032;-63
2022/09/21 09:58:58;;;;;;;4.28;1.08;;;;;;;17.84;60.54;102588.78;5074614;28;20039;-62
2022/09/21 10:01:47;;;;;;;5.50;1.30;;;;;;;18.13;58.08;102593.63;5074623;28;20455;-62
2022/09/21 10:04:16;;;;;;;4.53;1.10;;;;;;;17.97;55.46;102590.34;5074522;28;20079;-63
2022/09/21 10:06:42;;;;;;;6.65;1.00;;;;;;;17.98;51.90;102586.81;5074344;28;20032;-63
2022/09/21 10:09:17;;;;;;;5.35;0.98;;;;;;;17.97;54.53;102596.53;5074048;28;20039;-63
2022/09/21 10:11:44;;;;;;;4.15;0.90;;;;;;;17.86;52.86;102587.84;5074499;28;20036;-64
2022/09/21 10:14:17;;;;;;;3.80;1.05;;;;;;;17.56;53.88;102590.94;5074277;28;20042;-62
2022/09/21 10:16:42;;;;;;;3.45;0.90;;;;;;;17.48;53.32;102583.13;5074191;28;20414;-63
2022/09/21 10:19:25;;;;;;;3.40;0.85;;;;;;;17.84;56.79;102587.00;5074110;28;20028;-63
2022/09/21 10:22:03;;;;;;;4.85;1.30;;;;;;;18.06;54.25;102580.47;5068176;28;20398;-64
2022/09/21 10:24:34;;;;;;;2.45;0.93;;;;;;;18.28;53.46;102582.75;5073782;28;20458;-64
2022/09/21 10:27:05;;;;;;;2.85;0.90;;;;;;;18.35;51.54;102568.50;5074095;28;20024;-62
2022/09/21 10:29:38;;;;;;;1.63;0.80;;;;;;;18.51;51.39;102566.44;5073940;28;20036;-63
2022/09/21 10:32:17;;;;;;;4.97;0.95;;;;;;;18.43;51.50;102580.69;5074106;28;20112;-63
2022/09/21 10:35:13;;;;;;;2.92;0.80;;;;;;;18.67;52.39;102576.75;5073891;28;20349;-63
2022/09/21 10:37:45;;;;;;;3.28;0.98;;;;;;;18.90;47.15;102576.28;5073737;28;20130;-63
2022/09/21 10:40:16;;;;;;;;;;;;;;;19.08;50.33;102573.25;5074309;28;20059;-63
2022/09/21 10:42:42;;;;;;;2.03;0.80;;;;;;;19.19;48.14;102566.84;5074010;28;19916;-64
2022/09/21 10:45:20;;;;;;;3.22;1.00;;;;;;;19.36;49.79;102564.69;5057976;28;20044;-63
2022/09/21 10:47:51;;;;;;;5.03;1.33;;;;;;;19.13;50.69;102573.16;5053493;28;20445;-62
2022/09/21 10:50:33;;;;;;;3.88;1.50;;;;;;;18.86;52.67;102566.66;5053540;28;20033;-63
2022/09/21 10:53:07;;;;;;;;;;;;;;;18.94;56.25;102566.47;5054228;28;20052;-63
2022/09/21 10:55:37;;;;;;;4.40;1.40;;;;;;;18.77;52.46;102564.16;5053660;28;19916;-63
2022/09/21 10:58:07;;;;;;;4.57;1.30;;;;;;;19.01;54.28;102563.69;5053730;28;20037;-64
2022/09/21 11:00:40;;;;;;;3.40;1.20;;;;;;;19.17;54.14;102553.59;5053443;28;20037;-63
2022/09/21 11:03:27;;;;;;;4.05;1.30;;;;;;;19.25;52.95;102561.38;5052802;28;20125;-63
2022/09/21 11:05:54;;;;;;;3.58;1.20;;;;;;;19.10;49.23;102567.91;5052865;28;20052;-63
2022/09/21 11:08:29;;;;;;;4.03;1.25;;;;;;;19.29;51.48;102560.41;5053577;28;20080;-63
2022/09/21 11:11:16;;;;;;;5.15;1.23;;;;;;;19.49;52.26;102558.19;5053116;28;20041;-64
2022/09/21 11:13:53;;;;;;;3.17;1.10;;;;;;;19.31;48.98;102562.13;5053403;28;20029;-64
2022/09/21 11:16:53;;;;;;;3.95;0.85;;;;;;;18.95;49.03;102566.44;5053183;28;20424;-63
2022/09/21 11:19:33;;;;;;;2.25;1.20;;;;;;;18.84;51.82;102556.97;4991161;28;20042;-62
2022/09/21 11:22:21;;;;;;;3.60;0.95;;;;;;;18.50;52.10;102570.00;5046135;28;20045;-63
2022/09/21 11:25:13;;;;;;;5.50;1.00;;;;;;;18.18;51.70;102568.81;5053001;28;20365;-63
2022/09/21 11:27:43;;;;;;;2.97;0.85;;;;;;;18.07;50.99;102568.97;5052621;28;20037;-63
2022/09/21 11:30:13;;;;;;;2.50;0.80;;;;;;;17.99;50.41;102576.19;5053224;28;20475;-63
2022/09/21 11:33:09;;;;;;;4.35;1.10;;;;;;;18.05;52.79;102569.88;5052643;28;20041;-63
2022/09/21 11:36:00;;;;;;;3.35;0.75;;;;;;;18.20;52.42;102564.31;5052794;28;20115;-62
2022/09/21 11:38:47;;;;;;;4.22;0.70;;;;;;;18.30;52.10;102562.41;5052748;28;20037;-62
2022/09/21 11:41:19;;;;;;;3.75;0.88;;;;;;;18.17;51.67;102545.84;5052753;28;20520;-62
2022/09/21 11:44:09;;;;;;;4.25;1.10;;;;;;;18.22;52.54;102549.28;5052539;28;20029;-64
2022/09/21 11:46:45;;;;;;;3.50;0.88;;;;;;;18.08;48.90;102553.94;5052504;28;20472;-63